Time;durP1;ratioP1;P1;durP2;ratioP2;P2;SDS_P1;SDS_P2;PMS_P1;PMS_P2;Temp;Humidity;BMP_temperature;BMP_pressure;BME280_temperature;BME280_humidity;BME280_pressure;Samples;Min_cycle;Max_cycle;Signal;HPM_P1;HPM_P2
2021/09/21 00:01:17;;;;;;;5.38;3.67;;;13.70;87.00;;;;;;4915677;29;20043;-68
2021/09/21 00:03:42;;;;;;;4.65;3.33;;;13.70;87.00;;;;;;4911601;29;20051;-69
2021/09/21 00:06:09;;;;;;;5.13;3.53;;;13.60;87.10;;;;;;4914429;29;20130;-69
2021/09/21 00:08:35;;;;;;;6.70;4.05;;;13.60;87.50;;;;;;4912511;29;20046;-69
2021/09/21 00:11:03;;;;;;;5.97;3.50;;;13.60;87.50;;;;;;4911670;29;20051;-69
2021/09/21 00:13:30;;;;;;;3.95;3.42;;;13.70;87.60;;;;;;4913871;29;20637;-69
2021/09/21 00:15:57;;;;;;;5.03;3.20;;;13.70;87.70;;;;;;4910839;29;20831;-68
2021/09/21 00:18:23;;;;;;;7.45;3.95;;;13.70;87.60;;;;;;4914227;29;20138;-68
2021/09/21 00:20:49;;;;;;;6.30;4.30;;;13.70;87.60;;;;;;4911054;29;20043;-68
2021/09/21 00:23:15;;;;;;;5.07;3.65;;;13.70;87.70;;;;;;4912883;29;20416;-69
2021/09/21 00:25:40;;;;;;;7.70;3.28;;;13.70;87.50;;;;;;4912832;29;20199;-68
2021/09/21 00:28:06;;;;;;;6.38;3.88;;;13.70;87.60;;;;;;4912455;29;20036;-68
2021/09/21 00:30:33;;;;;;;5.82;3.92;;;13.70;87.50;;;;;;4909933;29;20039;-68
2021/09/21 00:33:03;;;;;;;6.07;3.50;;;13.70;87.50;;;;;;4912294;29;20216;-68
2021/09/21 00:35:34;;;;;;;5.63;3.70;;;13.70;87.50;;;;;;4912314;29;20044;-69
2021/09/21 00:38:02;;;;;;;4.13;3.25;;;13.70;87.40;;;;;;4909209;29;20836;-68
2021/09/21 00:40:29;;;;;;;5.50;3.38;;;13.60;87.30;;;;;;4910983;29;20111;-69
2021/09/21 00:43:01;;;;;;;4.47;3.47;;;13.60;87.50;;;;;;4912114;29;20667;-69
2021/09/21 00:45:26;;;;;;;5.70;3.47;;;13.60;87.50;;;;;;4913566;29;20201;-68
2021/09/21 00:47:54;;;;;;;4.13;3.45;;;13.60;87.50;;;;;;4909495;29;20119;-68
2021/09/21 00:50:22;;;;;;;6.28;3.60;;;13.60;87.30;;;;;;4911616;29;20040;-69
2021/09/21 00:52:49;;;;;;;4.22;3.25;;;13.50;87.30;;;;;;4910905;29;20043;-69
2021/09/21 00:55:16;;;;;;;8.50;4.38;;;13.50;87.40;;;;;;4912913;29;20691;-68
2021/09/21 00:57:43;;;;;;;4.50;3.42;;;13.50;87.50;;;;;;4911861;29;20036;-68
2021/09/21 01:00:11;;;;;;;4.22;3.60;;;13.40;87.60;;;;;;4911793;29;20047;-69
2021/09/21 01:02:37;;;;;;;6.32;3.75;;;13.40;87.80;;;;;;4908728;29;20036;-69
2021/09/21 01:05:05;;;;;;;6.13;3.92;;;13.50;87.70;;;;;;4913189;29;20111;-69
2021/09/21 01:07:30;;;;;;;7.40;3.63;;;13.40;87.70;;;;;;4911112;29;20040;-68
2021/09/21 01:10:20;;;;;;;5.75;3.92;;;13.40;87.80;;;;;;4913342;29;20094;-69
2021/09/21 01:12:46;;;;;;;4.93;3.28;;;13.40;87.80;;;;;;4912467;29;20046;-69
2021/09/21 01:15:13;;;;;;;5.15;3.88;;;13.40;87.90;;;;;;4911373;29;20028;-69
2021/09/21 01:17:39;;;;;;;4.60;3.50;;;13.40;88.70;;;;;;4910406;29;20404;-69
2021/09/21 01:20:08;;;;;;;5.15;3.83;;;13.40;88.30;;;;;;4910717;29;20047;-69
2021/09/21 01:22:34;;;;;;;7.15;3.63;;;13.40;88.50;;;;;;4912666;29;20054;-69
2021/09/21 01:24:59;;;;;;;3.88;3.47;;;13.40;88.50;;;;;;4909853;29;20048;-69
2021/09/21 01:27:25;;;;;;;5.22;3.38;;;13.40;88.60;;;;;;4911531;29;20043;-68
2021/09/21 01:29:51;;;;;;;4.50;3.40;;;13.40;88.50;;;;;;4911581;29;20044;-69
2021/09/21 01:32:19;;;;;;;7.18;4.15;;;13.40;88.40;;;;;;4909647;29;20040;-69
2021/09/21 01:34:46;;;;;;;4.28;3.47;;;13.40;88.50;;;;;;4910209;29;20036;-69
2021/09/21 01:37:13;;;;;;;3.95;3.25;;;13.40;88.60;;;;;;4911298;29;20040;-69
2021/09/21 01:39:40;;;;;;;6.25;3.70;;;13.50;88.50;;;;;;4913626;29;20044;-69
2021/09/21 01:42:06;;;;;;;5.00;3.63;;;13.50;88.50;;;;;;4911977;29;20032;-69
2021/09/21 01:44:32;;;;;;;5.68;3.60;;;13.50;88.40;;;;;;4910879;29;20044;-68
2021/09/21 01:47:02;;;;;;;6.68;3.83;;;13.50;88.40;;;;;;4910227;29;20083;-69
2021/09/21 01:49:34;;;;;;;4.97;3.58;;;13.50;88.40;;;;;;4915962;29;20059;-68
2021/09/21 01:52:10;;;;;;;6.40;3.60;;;13.50;88.50;;;;;;4915072;29;20032;-69
2021/09/21 02:00:05;;;;;;;4.18;3.30;;;13.50;88.40;;;;;;4915666;29;20083;-68
2021/09/21 02:02:38;;;;;;;4.85;3.70;;;13.50;88.50;;;;;;4916336;29;20036;-68
2021/09/21 02:05:04;;;;;;;4.68;3.42;;;13.50;88.40;;;;;;4915545;29;20638;-68
2021/09/21 02:07:30;;;;;;;5.45;3.67;;;13.50;88.40;;;;;;4913427;29;20036;-69
2021/09/21 02:09:56;;;;;;;5.55;3.38;;;13.40;88.60;;;;;;4911109;29;20900;-68
2021/09/21 02:12:22;;;;;;;4.50;3.65;;;13.50;88.60;;;;;;4914277;29;20814;-69
2021/09/21 02:14:47;;;;;;;5.47;4.32;;;13.50;88.60;;;;;;4914604;29;20024;-69
2021/09/21 02:17:13;;;;;;;4.47;3.60;;;13.50;88.40;;;;;;4921605;29;20032;-68
2021/09/21 02:19:40;;;;;;;5.32;3.75;;;13.50;88.40;;;;;;4915926;29;20403;-68
2021/09/21 02:22:07;;;;;;;5.00;3.60;;;13.50;88.40;;;;;;4911891;29;20130;-69
2021/09/21 02:24:33;;;;;;;7.40;3.55;;;13.40;88.30;;;;;;4914298;29;20095;-68
2021/09/21 02:26:58;;;;;;;5.63;4.13;;;13.40;88.30;;;;;;4912371;29;20044;-69
2021/09/21 02:29:26;;;;;;;3.45;2.70;;;13.40;88.30;;;;;;4911549;29;20035;-68
2021/09/21 02:31:51;;;;;;;7.25;3.70;;;13.40;88.40;;;;;;4913905;29;20043;-69
2021/09/21 02:34:17;;;;;;;5.25;4.00;;;13.40;88.70;;;;;;4911644;29;20671;-68
2021/09/21 02:36:43;;;;;;;4.22;3.50;;;13.40;88.20;;;;;;4915160;29;20489;-68
2021/09/21 02:39:10;;;;;;;6.30;3.65;;;13.40;88.30;;;;;;4914271;29;20111;-68
2021/09/21 02:41:36;;;;;;;5.68;3.42;;;13.40;88.40;;;;;;4912598;29;20103;-69
2021/09/21 02:44:02;;;;;;;7.13;4.07;;;13.40;88.50;;;;;;4913160;29;20027;-68
2021/09/21 02:46:28;;;;;;;5.63;4.10;;;13.30;88.40;;;;;;4914230;29;20837;-69
2021/09/21 02:48:54;;;;;;;7.47;3.70;;;13.30;88.50;;;;;;4913264;29;20035;-68
2021/09/21 02:51:20;;;;;;;5.05;3.95;;;13.30;88.40;;;;;;4912696;29;20460;-68
2021/09/21 02:53:45;;;;;;;5.30;3.70;;;13.30;88.40;;;;;;4911366;29;20031;-69
2021/09/21 02:56:14;;;;;;;5.22;3.55;;;13.30;88.40;;;;;;4914007;29;20571;-68
2021/09/21 02:58:43;;;;;;;4.43;3.45;;;13.30;88.20;;;;;;4910931;29;20042;-69
2021/09/21 03:01:10;;;;;;;5.47;3.67;;;13.30;88.20;;;;;;4911932;29;20067;-69
2021/09/21 03:03:46;;;;;;;4.40;3.60;;;13.30;88.30;;;;;;4911394;29;20050;-68
2021/09/21 03:06:21;;;;;;;;;;;13.30;88.50;;;;;;4915240;29;20146;-68
2021/09/21 03:08:47;;;;;;;7.18;3.35;;;13.30;88.60;;;;;;4916501;29;20152;-69
2021/09/21 03:11:17;;;;;;;6.57;3.65;;;13.30;88.80;;;;;;4913745;29;20760;-69
2021/09/21 03:13:55;;;;;;;5.25;3.20;;;13.30;88.70;;;;;;4915234;29;20727;-68
2021/09/21 03:19:05;;;;;;;5.45;4.10;;;13.20;88.70;;;;;;4918164;29;20062;-69
2021/09/21 03:21:31;;;;;;;4.55;3.40;;;13.20;88.80;;;;;;4911676;29;20122;-69
2021/09/21 03:23:57;;;;;;;7.80;3.53;;;13.20;89.50;;;;;;4913702;29;20046;-69
2021/09/21 03:26:22;;;;;;;4.95;3.47;;;13.30;89.00;;;;;;4911472;29;20039;-68
2021/09/21 03:28:49;;;;;;;5.55;3.67;;;13.30;89.00;;;;;;4917156;29;20059;-68
2021/09/21 03:31:14;;;;;;;5.28;3.97;;;13.30;89.00;;;;;;4911191;29;21090;-68
2021/09/21 03:33:40;;;;;;;4.45;3.60;;;13.30;89.00;;;;;;4912187;29;20039;-69
2021/09/21 03:36:06;;;;;;;4.90;3.60;;;13.20;88.80;;;;;;4914463;29;20090;-69
2021/09/21 03:38:32;;;;;;;4.45;3.50;;;13.30;89.00;;;;;;4911947;29;20138;-69
2021/09/21 03:40:57;;;;;;;4.00;3.55;;;13.30;88.80;;;;;;4912728;29;20063;-68
2021/09/21 03:43:24;;;;;;;4.85;3.50;;;13.30;88.60;;;;;;4912410;29;20135;-69
2021/09/21 03:45:50;;;;;;;5.10;3.63;;;13.30;88.80;;;;;;4914076;29;20043;-69
2021/09/21 03:48:16;;;;;;;4.82;3.40;;;13.30;89.00;;;;;;4914772;29;20091;-69
2021/09/21 03:50:42;;;;;;;6.07;4.00;;;13.30;89.00;;;;;;4915651;29;20039;-69
2021/09/21 03:53:07;;;;;;;4.90;3.58;;;13.30;89.00;;;;;;4916486;29;20829;-69
2021/09/21 03:55:33;;;;;;;4.82;3.30;;;13.30;88.90;;;;;;4916552;29;20031;-69
2021/09/21 03:57:59;;;;;;;6.35;4.18;;;13.30;88.80;;;;;;4918588;29;20051;-69
2021/09/21 04:00:25;;;;;;;5.05;3.88;;;13.30;88.30;;;;;;4917221;29;20698;-68
2021/09/21 04:02:50;;;;;;;5.30;3.67;;;13.30;88.50;;;;;;4913925;29;20047;-69
2021/09/21 04:05:16;;;;;;;4.93;3.72;;;13.20;88.50;;;;;;4913842;29;20054;-68
2021/09/21 04:07:42;;;;;;;4.28;3.30;;;13.20;88.40;;;;;;4913344;29;20067;-69
2021/09/21 04:10:08;;;;;;;4.90;3.67;;;13.20;89.10;;;;;;4918016;29;20385;-68
2021/09/21 04:12:35;;;;;;;6.60;3.95;;;13.10;88.40;;;;;;4915706;29;20043;-69
2021/09/21 04:15:02;;;;;;;6.93;3.95;;;13.10;88.50;;;;;;4914229;29;20609;-69
2021/09/21 04:17:28;;;;;;;5.35;3.80;;;13.00;88.60;;;;;;4913899;29;20797;-69
2021/09/21 04:19:53;;;;;;;5.60;3.65;;;13.00;88.70;;;;;;4917451;29;20044;-68
2021/09/21 04:22:19;;;;;;;6.25;3.67;;;13.00;88.90;;;;;;4912669;29;20070;-68
2021/09/21 04:24:45;;;;;;;6.70;4.20;;;13.00;89.00;;;;;;4913397;29;20034;-69
2021/09/21 04:27:12;;;;;;;7.63;4.63;;;13.00;88.90;;;;;;4914824;29;20147;-68
2021/09/21 04:29:38;;;;;;;7.00;4.03;;;13.00;89.00;;;;;;4911476;29;20046;-68
2021/09/21 04:32:03;;;;;;;5.53;3.95;;;12.90;89.10;;;;;;4913490;29;20148;-68
2021/09/21 04:34:30;;;;;;;5.20;3.55;;;12.90;89.10;;;;;;4917099;29;20120;-69
2021/09/21 04:36:57;;;;;;;5.97;3.80;;;12.90;89.20;;;;;;4913998;29;20115;-69
2021/09/21 04:39:23;;;;;;;4.70;3.63;;;12.90;89.40;;;;;;4919332;29;20175;-68
2021/09/21 04:41:50;;;;;;;5.47;3.95;;;12.90;89.30;;;;;;4916090;29;20475;-67
2021/09/21 04:44:15;;;;;;;5.25;4.32;;;12.90;89.30;;;;;;4919921;29;20617;-68
2021/09/21 04:46:41;;;;;;;5.30;3.92;;;12.90;89.20;;;;;;4913264;29;20044;-69
2021/09/21 04:49:08;;;;;;;5.32;3.95;;;12.90;89.60;;;;;;4915470;29;20732;-69
2021/09/21 04:51:34;;;;;;;6.00;4.45;;;12.90;89.50;;;;;;4915302;29;20106;-68
2021/09/21 04:54:00;;;;;;;6.85;4.50;;;12.90;89.60;;;;;;4915142;29;20039;-69
2021/09/21 04:56:26;;;;;;;5.25;3.63;;;13.00;89.60;;;;;;4910604;29;20039;-68
2021/09/21 04:58:53;;;;;;;9.23;4.75;;;13.00;89.60;;;;;;4912989;29;20030;-69
2021/09/21 05:01:19;;;;;;;5.85;4.30;;;13.00;89.60;;;;;;4913609;29;20042;-69
2021/09/21 05:03:45;;;;;;;5.43;4.18;;;13.00;89.60;;;;;;4915117;29;20044;-68
2021/09/21 05:06:10;;;;;;;9.20;4.60;;;13.00;89.90;;;;;;4912086;29;20096;-68
2021/09/21 05:08:36;;;;;;;6.38;4.03;;;13.00;89.90;;;;;;4917771;29;20160;-68
2021/09/21 05:11:02;;;;;;;7.25;4.55;;;13.10;89.90;;;;;;4915190;29;20035;-68
2021/09/21 05:13:27;;;;;;;5.32;4.25;;;13.10;89.80;;;;;;4914576;29;20095;-68
2021/09/21 05:15:53;;;;;;;6.00;3.85;;;13.10;89.70;;;;;;4912175;29;20588;-68
2021/09/21 05:18:19;;;;;;;7.75;4.70;;;13.20;89.90;;;;;;4913663;29;20085;-68
2021/09/21 05:20:44;;;;;;;5.60;4.85;;;13.20;89.90;;;;;;4908374;29;20146;-68
2021/09/21 05:23:10;;;;;;;6.18;4.25;;;13.20;90.00;;;;;;4915258;29;20032;-68
2021/09/21 05:25:36;;;;;;;7.35;4.60;;;13.30;90.00;;;;;;4919872;29;20115;-68
2021/09/21 05:28:03;;;;;;;6.00;4.55;;;13.30;89.90;;;;;;4919303;29;20039;-70
2021/09/21 05:30:28;;;;;;;7.18;5.10;;;13.30;89.70;;;;;;4910536;29;20078;-68
2021/09/21 05:32:54;;;;;;;7.75;4.75;;;13.30;89.80;;;;;;4916405;29;20151;-69
2021/09/21 05:35:20;;;;;;;6.47;4.20;;;13.40;90.00;;;;;;4917862;29;20058;-69
2021/09/21 05:37:45;;;;;;;6.20;4.57;;;13.40;89.80;;;;;;4919013;29;20114;-68
2021/09/21 05:40:16;;;;;;;6.20;4.97;;;13.50;90.00;;;;;;4920550;29;20040;-68
2021/09/21 05:42:42;;;;;;;7.22;4.95;;;13.50;90.00;;;;;;4920316;29;20799;-68
2021/09/21 05:45:09;;;;;;;7.68;5.13;;;13.50;89.90;;;;;;4912260;29;20043;-68
2021/09/21 05:47:37;;;;;;;6.80;5.38;;;13.60;89.90;;;;;;4913078;29;20035;-73
2021/09/21 05:50:04;;;;;;;6.35;4.93;;;13.60;89.70;;;;;;4920074;29;20070;-70
2021/09/21 05:52:29;;;;;;;9.25;5.10;;;13.70;89.40;;;;;;4915041;29;20055;-70
2021/09/21 05:54:55;;;;;;;10.27;4.70;;;13.80;89.20;;;;;;4915890;29;20043;-70
2021/09/21 05:57:20;;;;;;;6.60;4.28;;;13.80;89.10;;;;;;4917193;29;20035;-70
2021/09/21 05:59:46;;;;;;;7.97;5.43;;;13.90;89.00;;;;;;4916329;29;20647;-70
2021/09/21 06:02:12;;;;;;;10.40;5.72;;;13.90;88.80;;;;;;4919780;29;20042;-70
2021/09/21 06:04:38;;;;;;;9.60;5.78;;;14.00;88.70;;;;;;4922650;29;20039;-70
2021/09/21 06:07:03;;;;;;;11.23;5.57;;;14.00;88.30;;;;;;4916368;29;20028;-69
2021/09/21 06:09:29;;;;;;;7.97;4.85;;;14.10;88.00;;;;;;4915550;29;20664;-70
2021/09/21 06:11:55;;;;;;;6.78;4.70;;;14.10;87.70;;;;;;4918613;29;20043;-70
2021/09/21 06:14:20;;;;;;;8.55;5.05;;;14.10;87.50;;;;;;4910212;29;20032;-70
2021/09/21 06:16:46;;;;;;;7.97;5.10;;;14.20;87.30;;;;;;4914203;29;20115;-70
2021/09/21 06:19:12;;;;;;;6.47;4.63;;;14.20;86.90;;;;;;4913578;29;20822;-70
2021/09/21 06:21:38;;;;;;;8.82;5.05;;;14.20;86.90;;;;;;4918607;29;20036;-70
2021/09/21 06:24:03;;;;;;;6.40;4.45;;;14.30;87.20;;;;;;4908533;29;20048;-70
2021/09/21 06:26:32;;;;;;;7.75;4.47;;;14.30;87.20;;;;;;4915316;28;20086;-70
2021/09/21 06:28:59;;;;;;;7.28;5.13;;;14.40;86.80;;;;;;4901364;29;20103;-70
2021/09/21 06:31:26;;;;;;;6.10;4.78;;;14.60;85.90;;;;;;4897494;29;20040;-70
2021/09/21 06:33:52;;;;;;;9.75;4.57;;;14.60;85.40;;;;;;4892713;29;20036;-69
2021/09/21 06:36:18;;;;;;;8.40;5.35;;;14.60;85.10;;;;;;4896887;29;20032;-69
2021/09/21 06:38:44;;;;;;;7.38;4.85;;;14.70;85.00;;;;;;4902109;29;20032;-70
2021/09/21 06:41:09;;;;;;;5.70;4.70;;;14.70;84.70;;;;;;4895924;29;20136;-70
2021/09/21 06:43:35;;;;;;;7.15;4.60;;;14.80;84.70;;;;;;4897123;29;20044;-70
2021/09/21 06:46:01;;;;;;;6.47;4.32;;;14.90;84.70;;;;;;4895371;29;20123;-70
2021/09/21 06:48:27;;;;;;;6.32;3.70;;;14.90;84.30;;;;;;4896051;29;20040;-70
2021/09/21 06:50:53;;;;;;;7.10;4.70;;;15.00;83.90;;;;;;4895685;29;20044;-70
2021/09/21 06:53:19;;;;;;;6.82;4.15;;;15.10;83.30;;;;;;4898193;29;20051;-70
2021/09/21 06:55:45;;;;;;;7.82;4.70;;;15.00;82.60;;;;;;4899937;29;20111;-70
2021/09/21 06:58:11;;;;;;;9.13;4.32;;;15.00;82.80;;;;;;4898186;29;20043;-69
2021/09/21 07:00:38;;;;;;;5.38;4.53;;;15.00;82.80;;;;;;4898439;29;20032;-70
2021/09/21 07:03:06;;;;;;;6.95;4.25;;;15.00;82.80;;;;;;4898896;29;20044;-69
2021/09/21 07:05:33;;;;;;;6.28;4.53;;;15.10;82.80;;;;;;4898503;29;20047;-70
2021/09/21 07:07:59;;;;;;;5.63;4.40;;;15.10;83.00;;;;;;4896779;29;20032;-70
2021/09/21 07:10:25;;;;;;;7.32;4.53;;;15.20;82.70;;;;;;4895436;29;20541;-69
2021/09/21 07:12:50;;;;;;;5.90;4.35;;;15.20;82.40;;;;;;4900654;29;20068;-70
2021/09/21 07:15:21;;;;;;;6.93;4.30;;;15.30;81.80;;;;;;4898923;29;20502;-74
2021/09/21 07:17:47;;;;;;;4.93;3.80;;;15.30;81.80;;;;;;4898538;29;20679;-73
2021/09/21 07:20:13;;;;;;;6.00;4.20;;;15.30;81.50;;;;;;4899490;29;20044;-70
2021/09/21 07:22:39;;;;;;;5.78;4.30;;;15.40;81.20;;;;;;4896729;29;20044;-73
2021/09/21 07:25:05;;;;;;;5.85;4.22;;;15.50;81.50;;;;;;4896618;29;20043;-69
2021/09/21 07:27:31;;;;;;;5.55;4.45;;;15.50;81.00;;;;;;4898994;29;20135;-69
2021/09/21 07:29:56;;;;;;;7.32;4.22;;;15.70;80.70;;;;;;4898571;29;20259;-69
2021/09/21 07:32:22;;;;;;;6.40;4.10;;;15.80;80.40;;;;;;4897347;29;20044;-69
2021/09/21 07:34:48;;;;;;;7.03;4.13;;;15.90;80.10;;;;;;4900581;29;20508;-69
2021/09/21 07:37:14;;;;;;;7.57;4.60;;;16.00;79.50;;;;;;4899607;29;20042;-68
2021/09/21 07:39:39;;;;;;;6.93;4.22;;;15.90;79.60;;;;;;4897696;29;20134;-69
2021/09/21 07:42:05;;;;;;;8.20;4.70;;;16.00;79.10;;;;;;4895813;29;20040;-68
2021/09/21 07:44:31;;;;;;;5.72;4.50;;;16.10;78.10;;;;;;4892557;29;20044;-68
2021/09/21 07:46:58;;;;;;;7.57;4.30;;;16.00;78.10;;;;;;4895403;29;20492;-68
2021/09/21 07:49:24;;;;;;;5.82;4.10;;;16.00;78.70;;;;;;4894196;29;20048;-68
2021/09/21 07:51:50;;;;;;;8.40;4.68;;;16.10;78.60;;;;;;4894602;29;20039;-68
2021/09/21 07:54:16;;;;;;;6.90;4.35;;;16.20;78.40;;;;;;4895415;29;20091;-68
2021/09/21 07:56:42;;;;;;;5.75;4.47;;;16.30;77.90;;;;;;4893447;29;20024;-68
2021/09/21 07:59:08;;;;;;;5.78;4.35;;;16.20;77.30;;;;;;4894433;29;20032;-68
2021/09/21 08:01:37;;;;;;;7.85;4.50;;;16.30;77.00;;;;;;4896566;29;20629;-68
2021/09/21 08:04:03;;;;;;;6.13;4.28;;;16.40;77.60;;;;;;4897795;29;20039;-69
2021/09/21 08:06:29;;;;;;;4.35;3.95;;;16.50;76.30;;;;;;4895848;29;20498;-68
2021/09/21 08:08:55;;;;;;;6.15;4.45;;;16.60;76.10;;;;;;4897197;29;20040;-68
2021/09/21 08:11:21;;;;;;;6.30;4.63;;;16.70;75.70;;;;;;4898780;29;20124;-69
2021/09/21 08:13:46;;;;;;;7.00;4.25;;;16.80;74.80;;;;;;4895419;29;20044;-68
2021/09/21 08:16:12;;;;;;;5.05;4.35;;;16.80;75.40;;;;;;4898418;29;20111;-68
2021/09/21 08:18:38;;;;;;;8.98;4.97;;;16.80;74.50;;;;;;4893451;29;20741;-69
2021/09/21 08:21:04;;;;;;;8.38;5.38;;;16.90;75.10;;;;;;4895324;29;20099;-75
2021/09/21 08:23:30;;;;;;;7.93;4.43;;;16.90;73.80;;;;;;4896714;29;20041;-69
2021/09/21 08:25:55;;;;;;;8.70;4.68;;;16.90;72.00;;;;;;4893077;29;20052;-69
2021/09/21 08:28:21;;;;;;;7.18;4.80;;;16.80;71.90;;;;;;4898369;29;20032;-69
2021/09/21 08:30:48;;;;;;;7.18;4.32;;;16.80;71.80;;;;;;4894925;29;20921;-69
2021/09/21 08:33:14;;;;;;;4.80;3.90;;;16.80;71.90;;;;;;4895796;29;20047;-70
2021/09/21 08:35:40;;;;;;;7.63;4.28;;;16.80;71.30;;;;;;4895263;29;20031;-73
2021/09/21 08:38:06;;;;;;;7.70;4.80;;;16.80;72.20;;;;;;4888777;29;20033;-68
2021/09/21 08:40:32;;;;;;;11.18;6.53;;;16.80;71.10;;;;;;4894843;29;20043;-68
2021/09/21 08:42:59;;;;;;;8.73;6.50;;;16.80;70.50;;;;;;4896138;29;20044;-68
2021/09/21 08:45:27;;;;;;;10.18;6.32;;;16.80;70.70;;;;;;4897755;29;20039;-69
2021/09/21 08:47:53;;;;;;;7.95;5.57;;;16.90;70.70;;;;;;4891877;29;20130;-69
2021/09/21 08:50:19;;;;;;;8.13;5.55;;;17.00;70.10;;;;;;4897541;29;20598;-69
2021/09/21 08:52:45;;;;;;;8.75;5.72;;;17.20;71.00;;;;;;4896562;29;20045;-69
2021/09/21 08:55:14;;;;;;;6.55;4.60;;;17.50;68.60;;;;;;4898125;29;20131;-68
2021/09/21 08:57:41;;;;;;;8.32;4.80;;;17.90;67.40;;;;;;4897059;29;20757;-69
2021/09/21 09:00:10;;;;;;;8.25;4.45;;;18.20;65.80;;;;;;4908986;29;20043;-69
2021/09/21 09:02:36;;;;;;;7.15;4.38;;;18.60;63.60;;;;;;4896138;29;20036;-68
2021/09/21 09:05:11;;;;;;;6.90;3.72;;;19.00;61.60;;;;;;4897724;29;20092;-69
2021/09/21 09:07:49;;;;;;;6.43;4.40;;;19.20;58.40;;;;;;4893464;29;20032;-68
2021/09/21 09:10:16;;;;;;;5.03;3.60;;;19.20;59.70;;;;;;4897512;29;20036;-69
2021/09/21 09:12:42;;;;;;;6.78;4.30;;;19.10;60.40;;;;;;4895248;29;20057;-69
2021/09/21 09:15:12;;;;;;;7.55;4.13;;;19.20;60.20;;;;;;4893362;29;20040;-68
2021/09/21 09:17:39;;;;;;;6.07;4.30;;;19.20;60.20;;;;;;4898976;29;20045;-69
2021/09/21 09:20:07;;;;;;;5.78;4.32;;;19.20;60.00;;;;;;4892606;29;20110;-68
2021/09/21 09:22:33;;;;;;;5.10;3.53;;;19.30;59.70;;;;;;4896226;29;20520;-73
2021/09/21 09:25:02;;;;;;;6.55;3.65;;;19.50;58.30;;;;;;4895766;29;20032;-72
2021/09/21 09:27:37;;;;;;;5.55;3.33;;;19.50;58.40;;;;;;4893498;29;20039;-70
2021/09/21 09:30:08;;;;;;;4.28;3.35;;;19.20;56.80;;;;;;4889367;29;20028;-69
2021/09/21 09:32:46;;;;;;;3.47;2.88;;;19.00;58.40;;;;;;4896007;29;20427;-71
2021/09/21 09:35:31;;;;;;;5.85;2.80;;;18.80;58.40;;;;;;4891336;29;20037;-70
2021/09/21 09:37:59;;;;;;;4.15;3.05;;;18.70;59.10;;;;;;4895179;29;20032;-68
2021/09/21 09:40:29;;;;;;;3.08;2.53;;;18.60;59.10;;;;;;4893140;29;20032;-69
2021/09/21 09:42:54;;;;;;;4.50;3.10;;;18.70;60.40;;;;;;4897763;29;20028;-69
2021/09/21 09:45:37;;;;;;;5.45;3.22;;;18.70;59.50;;;;;;4890979;29;20505;-70
2021/09/21 09:48:03;;;;;;;4.65;3.03;;;18.70;59.50;;;;;;4891909;29;20036;-70
2021/09/21 09:50:34;;;;;;;3.40;2.50;;;18.70;59.70;;;;;;4893057;29;20032;-71
2021/09/21 09:53:03;;;;;;;4.50;2.72;;;18.70;58.70;;;;;;4895741;29;20044;-69
2021/09/21 09:55:29;;;;;;;3.03;2.50;;;18.50;58.10;;;;;;4895771;29;20071;-69
2021/09/21 09:57:56;;;;;;;3.95;2.78;;;18.40;59.00;;;;;;4892851;29;20044;-69
2021/09/21 10:00:22;;;;;;;3.25;2.47;;;18.40;59.50;;;;;;4893072;29;20067;-69
2021/09/21 10:02:48;;;;;;;4.38;2.42;;;18.50;60.40;;;;;;4892933;29;20140;-70
2021/09/21 10:05:14;;;;;;;3.70;2.80;;;18.60;59.10;;;;;;4884263;29;20066;-70
2021/09/21 10:07:40;;;;;;;4.85;3.05;;;18.70;58.90;;;;;;4889725;29;20049;-70
2021/09/21 10:10:06;;;;;;;4.00;3.13;;;18.80;56.90;;;;;;4893844;29;20046;-70
2021/09/21 10:12:32;;;;;;;4.00;2.85;;;18.90;55.60;;;;;;4895375;29;20032;-69
2021/09/21 10:14:58;;;;;;;5.22;2.90;;;18.90;56.00;;;;;;4893592;29;20066;-69
2021/09/21 10:17:27;;;;;;;6.95;3.15;;;18.90;55.00;;;;;;4896450;29;20115;-69
2021/09/21 10:19:55;;;;;;;5.15;3.22;;;19.00;55.50;;;;;;4900861;29;20148;-69
2021/09/21 10:22:29;;;;;;;6.35;2.90;;;19.10;55.40;;;;;;4897559;29;20047;-70
2021/09/21 10:25:02;;;;;;;6.63;3.58;;;19.10;54.60;;;;;;4897994;29;20036;-70
2021/09/21 10:27:28;;;;;;;4.03;3.30;;;19.20;56.10;;;;;;4894864;29;20033;-69
2021/09/21 10:30:02;;;;;;;5.15;3.30;;;19.30;56.40;;;;;;4900551;29;20036;-69
2021/09/21 10:32:28;;;;;;;6.00;3.20;;;19.30;56.40;;;;;;4901696;29;20478;-69
2021/09/21 10:34:56;;;;;;;5.45;2.63;;;19.40;56.40;;;;;;4898320;29;20066;-69
2021/09/21 10:37:23;;;;;;;3.13;2.40;;;19.40;57.40;;;;;;4896207;29;20135;-69
2021/09/21 10:39:59;;;;;;;4.18;3.45;;;19.40;56.90;;;;;;4898059;29;20094;-69
2021/09/21 10:42:25;;;;;;;4.95;2.70;;;19.40;57.40;;;;;;4895932;29;20096;-70
2021/09/21 10:44:53;;;;;;;4.30;2.88;;;19.30;56.90;;;;;;4897412;29;20044;-69
2021/09/21 10:47:22;;;;;;;3.55;3.22;;;19.20;57.30;;;;;;4898858;29;20484;-69
2021/09/21 10:49:47;;;;;;;6.60;2.90;;;19.10;57.50;;;;;;4895556;29;20028;-71
2021/09/21 10:52:16;;;;;;;8.75;2.50;;;19.10;58.00;;;;;;4898523;29;20701;-71
2021/09/21 10:54:51;;;;;;;3.42;2.33;;;19.10;57.90;;;;;;4898000;29;20139;-71
2021/09/21 10:57:27;;;;;;;4.93;2.45;;;19.00;56.70;;;;;;4895048;29;20032;-72
2021/09/21 10:59:56;;;;;;;2.97;2.30;;;19.10;57.60;;;;;;4899559;29;20115;-70
2021/09/21 11:02:31;;;;;;;4.18;2.63;;;19.00;56.90;;;;;;4896051;29;20032;-70
2021/09/21 11:04:58;;;;;;;6.18;3.38;;;18.90;57.10;;;;;;4894521;29;20042;-73
2021/09/21 11:07:24;;;;;;;3.38;2.50;;;18.80;57.60;;;;;;4896262;29;20032;-71
2021/09/21 11:09:55;;;;;;;2.92;2.28;;;18.80;57.10;;;;;;4894181;29;20103;-74
2021/09/21 11:12:24;;;;;;;5.80;2.70;;;18.70;56.50;;;;;;4892383;29;20072;-73
2021/09/21 11:14:53;;;;;;;3.25;2.33;;;18.70;57.00;;;;;;4890413;29;20040;-69
2021/09/21 11:17:23;;;;;;;5.93;2.42;;;18.60;56.30;;;;;;4896079;29;20032;-71
2021/09/21 11:19:55;;;;;;;4.45;2.00;;;18.60;56.00;;;;;;4896590;29;20559;-70
2021/09/21 11:22:26;;;;;;;3.50;2.80;;;18.70;56.70;;;;;;4894131;29;20040;-70
2021/09/21 11:25:11;;;;;;;3.75;2.30;;;18.70;56.50;;;;;;4891039;29;20757;-70
2021/09/21 11:27:39;;;;;;;3.53;2.30;;;18.80;55.60;;;;;;4892902;29;20047;-70
2021/09/21 11:30:14;;;;;;;5.30;2.80;;;18.80;56.70;;;;;;4899309;29;20404;-72
2021/09/21 11:32:41;;;;;;;6.22;2.60;;;18.80;57.40;;;;;;4892977;29;20063;-70
2021/09/21 11:35:16;;;;;;;5.60;3.33;;;18.90;56.40;;;;;;4894783;29;20123;-70
2021/09/21 11:37:51;;;;;;;4.45;3.20;;;18.90;57.20;;;;;;4897042;29;20119;-69
2021/09/21 11:40:24;;;;;;;4.88;2.40;;;18.90;56.30;;;;;;4901455;29;20041;-70
2021/09/21 11:42:50;;;;;;;3.47;2.53;;;18.90;55.60;;;;;;4902318;29;20674;-71
2021/09/21 11:45:16;;;;;;;5.07;3.08;;;18.90;56.40;;;;;;4898573;29;20055;-71
2021/09/21 11:47:48;;;;;;;4.55;2.30;;;18.70;56.10;;;;;;4891790;29;20036;-71
2021/09/21 11:50:26;;;;;;;4.60;2.97;;;18.80;56.80;;;;;;4896551;29;20075;-69
2021/09/21 11:52:58;;;;;;;4.10;2.95;;;18.70;56.30;;;;;;4895527;29;20773;-73
2021/09/21 11:55:29;;;;;;;4.72;3.00;;;18.80;56.70;;;;;;4892527;29;20044;-71
2021/09/21 11:57:56;;;;;;;7.15;3.53;;;18.80;56.40;;;;;;4894816;29;20059;-73
2021/09/21 12:00:21;;;;;;;4.72;2.85;;;18.90;56.60;;;;;;4895892;29;20123;-72
2021/09/21 12:02:55;;;;;;;5.80;3.05;;;19.00;56.50;;;;;;4893204;29;20031;-72
2021/09/21 12:05:21;;;;;;;3.67;2.70;;;19.00;55.10;;;;;;4893614;29;20449;-69
2021/09/21 12:07:48;;;;;;;6.00;4.20;;;19.00;54.10;;;;;;4896904;29;20131;-69
2021/09/21 12:10:14;;;;;;;4.57;2.88;;;19.00;55.30;;;;;;4893065;29;20517;-69
2021/09/21 12:12:41;;;;;;;3.55;2.72;;;19.00;55.60;;;;;;4894803;29;20043;-70
2021/09/21 12:15:07;;;;;;;4.00;3.28;;;19.00;55.90;;;;;;4897375;29;20025;-67
2021/09/21 12:17:41;;;;;;;7.03;4.80;;;19.00;56.40;;;;;;4895447;29;20071;-67
2021/09/21 12:20:08;;;;;;;5.00;3.10;;;19.00;56.30;;;;;;4896669;29;20044;-67
2021/09/21 12:22:34;;;;;;;6.40;2.90;;;18.80;56.50;;;;;;4899287;29;20176;-67
2021/09/21 12:25:10;;;;;;;6.00;3.83;;;18.80;56.50;;;;;;4894845;29;20044;-69
2021/09/21 12:27:37;;;;;;;4.90;3.25;;;18.70;56.10;;;;;;4895497;29;20040;-69
2021/09/21 12:30:08;;;;;;;6.85;3.72;;;18.60;57.20;;;;;;4896735;29;20408;-68
2021/09/21 12:32:34;;;;;;;11.63;10.43;;;18.60;57.10;;;;;;4900479;29;20024;-69
2021/09/21 12:35:02;;;;;;;10.32;7.38;;;18.50;57.80;;;;;;4891442;29;20040;-68
2021/09/21 12:37:39;;;;;;;9.10;6.40;;;18.60;57.80;;;;;;4892444;29;20581;-68
2021/09/21 12:40:11;;;;;;;7.43;4.43;;;18.60;57.90;;;;;;4893190;29;20031;-68
2021/09/21 12:42:39;;;;;;;5.07;3.65;;;18.60;57.40;;;;;;4897288;29;20107;-68
2021/09/21 12:45:06;;;;;;;6.45;3.72;;;18.60;57.10;;;;;;4894179;29;20032;-68
2021/09/21 12:47:33;;;;;;;6.85;4.10;;;18.70;57.20;;;;;;4892472;29;20108;-68
2021/09/21 12:50:02;;;;;;;5.50;4.10;;;18.60;56.70;;;;;;4897023;29;20733;-67
2021/09/21 12:52:31;;;;;;;9.50;3.95;;;18.70;56.70;;;;;;4891170;29;20037;-67
2021/09/21 12:54:58;;;;;;;7.90;5.07;;;18.70;57.90;;;;;;4896654;29;20782;-67
2021/09/21 12:57:24;;;;;;;5.80;3.38;;;18.70;58.30;;;;;;4891847;29;20801;-67